sensor_id;sensor_type;location;lat;lon;timestamp;temperature;humidity
28247;DHT22;66191;53.178;22.058;2023-05-16T00:00:08;14.10;99.90
28247;DHT22;66191;53.178;22.058;2023-05-16T00:03:03;14.10;99.90
28247;DHT22;66191;53.178;22.058;2023-05-16T00:05:39;14.10;99.90
28247;DHT22;66191;53.178;22.058;2023-05-16T00:08:11;14.10;99.90
28247;DHT22;66191;53.178;22.058;2023-05-16T00:10:44;14.10;99.90
28247;DHT22;66191;53.178;22.058;2023-05-16T00:13:16;14.10;99.90
28247;DHT22;66191;53.178;22.058;2023-05-16T00:16:00;14.10;99.90
28247;DHT22;66191;53.178;22.058;2023-05-16T00:18:35;14.10;99.90
28247;DHT22;66191;53.178;22.058;2023-05-16T00:21:15;14.10;99.90
28247;DHT22;66191;53.178;22.058;2023-05-16T00:24:02;14.20;99.90
28247;DHT22;66191;53.178;22.058;2023-05-16T00:26:43;14.20;99.90
28247;DHT22;66191;53.178;22.058;2023-05-16T00:29:17;14.20;99.90
28247;DHT22;66191;53.178;22.058;2023-05-16T00:31:50;14.20;99.90
28247;DHT22;66191;53.178;22.058;2023-05-16T00:34:27;14.20;99.90
28247;DHT22;66191;53.178;22.058;2023-05-16T00:37:01;14.20;99.90
28247;DHT22;66191;53.178;22.058;2023-05-16T00:39:33;14.30;99.90
28247;DHT22;66191;53.178;22.058;2023-05-16T00:42:06;14.30;99.90
28247;DHT22;66191;53.178;22.058;2023-05-16T00:44:38;14.30;99.90
28247;DHT22;66191;53.178;22.058;2023-05-16T00:47:12;14.20;99.90
28247;DHT22;66191;53.178;22.058;2023-05-16T00:49:47;14.30;99.90
28247;DHT22;66191;53.178;22.058;2023-05-16T00:52:25;14.30;99.90
28247;DHT22;66191;53.178;22.058;2023-05-16T00:54:56;14.30;99.90
28247;DHT22;66191;53.178;22.058;2023-05-16T00:57:28;14.30;99.90
28247;DHT22;66191;53.178;22.058;2023-05-16T00:59:59;14.30;99.90
28247;DHT22;66191;53.178;22.058;2023-05-16T01:02:32;14.20;99.90
28247;DHT22;66191;53.178;22.058;2023-05-16T01:05:08;14.30;99.90
28247;DHT22;66191;53.178;22.058;2023-05-16T01:07:43;14.30;99.90
28247;DHT22;66191;53.178;22.058;2023-05-16T01:10:15;14.20;99.90
28247;DHT22;66191;53.178;22.058;2023-05-16T01:12:53;14.20;99.90
28247;DHT22;66191;53.178;22.058;2023-05-16T01:15:35;14.20;99.90
28247;DHT22;66191;53.178;22.058;2023-05-16T01:18:17;14.20;99.90
28247;DHT22;66191;53.178;22.058;2023-05-16T01:20:59;14.30;99.90
28247;DHT22;66191;53.178;22.058;2023-05-16T01:23:39;14.20;99.90
28247;DHT22;66191;53.178;22.058;2023-05-16T01:26:19;14.30;99.90
28247;DHT22;66191;53.178;22.058;2023-05-16T01:28:52;14.30;99.90
28247;DHT22;66191;53.178;22.058;2023-05-16T01:31:23;14.30;99.90
28247;DHT22;66191;53.178;22.058;2023-05-16T01:33:56;14.30;99.90
28247;DHT22;66191;53.178;22.058;2023-05-16T01:36:35;14.20;99.90
28247;DHT22;66191;53.178;22.058;2023-05-16T01:39:15;14.30;99.90
28247;DHT22;66191;53.178;22.058;2023-05-16T01:42:02;14.20;99.90
28247;DHT22;66191;53.178;22.058;2023-05-16T01:44:39;14.20;99.90
28247;DHT22;66191;53.178;22.058;2023-05-16T01:47:12;14.30;99.90
28247;DHT22;66191;53.178;22.058;2023-05-16T01:49:50;14.30;99.90
28247;DHT22;66191;53.178;22.058;2023-05-16T01:52:27;14.20;99.90
28247;DHT22;66191;53.178;22.058;2023-05-16T01:55:01;14.30;99.90
28247;DHT22;66191;53.178;22.058;2023-05-16T01:57:36;14.30;99.90
28247;DHT22;66191;53.178;22.058;2023-05-16T02:00:11;14.30;99.90
28247;DHT22;66191;53.178;22.058;2023-05-16T02:02:42;14.30;99.90
28247;DHT22;66191;53.178;22.058;2023-05-16T02:05:16;14.30;99.90
28247;DHT22;66191;53.178;22.058;2023-05-16T02:07:47;14.30;99.90
28247;DHT22;66191;53.178;22.058;2023-05-16T02:10:19;14.20;99.90
28247;DHT22;66191;53.178;22.058;2023-05-16T02:12:52;14.20;99.90
28247;DHT22;66191;53.178;22.058;2023-05-16T02:15:24;14.20;99.90
28247;DHT22;66191;53.178;22.058;2023-05-16T02:17:55;14.30;99.90
28247;DHT22;66191;53.178;22.058;2023-05-16T02:20:27;14.20;99.90
28247;DHT22;66191;53.178;22.058;2023-05-16T02:23:00;14.20;99.90
28247;DHT22;66191;53.178;22.058;2023-05-16T02:25:36;14.20;99.90
28247;DHT22;66191;53.178;22.058;2023-05-16T02:28:12;14.20;99.90
28247;DHT22;66191;53.178;22.058;2023-05-16T02:30:43;14.20;99.90
28247;DHT22;66191;53.178;22.058;2023-05-16T02:33:14;14.20;99.90
28247;DHT22;66191;53.178;22.058;2023-05-16T02:35:46;14.10;99.90
28247;DHT22;66191;53.178;22.058;2023-05-16T02:38:20;14.10;99.90
28247;DHT22;66191;53.178;22.058;2023-05-16T02:41:07;14.10;99.90
28247;DHT22;66191;53.178;22.058;2023-05-16T02:44:00;14.10;99.90
28247;DHT22;66191;53.178;22.058;2023-05-16T02:46:33;14.10;99.90
28247;DHT22;66191;53.178;22.058;2023-05-16T02:49:10;14.10;99.90
28247;DHT22;66191;53.178;22.058;2023-05-16T02:51:42;14.10;99.90
28247;DHT22;66191;53.178;22.058;2023-05-16T02:54:24;14.00;99.90
28247;DHT22;66191;53.178;22.058;2023-05-16T02:56:57;14.00;99.90
28247;DHT22;66191;53.178;22.058;2023-05-16T02:59:49;13.90;99.90
28247;DHT22;66191;53.178;22.058;2023-05-16T03:02:41;14.00;99.90
28247;DHT22;66191;53.178;22.058;2023-05-16T03:05:26;14.00;99.90
28247;DHT22;66191;53.178;22.058;2023-05-16T03:08:00;14.00;99.90
28247;DHT22;66191;53.178;22.058;2023-05-16T03:10:47;13.90;99.90
28247;DHT22;66191;53.178;22.058;2023-05-16T03:13:19;13.90;99.90
28247;DHT22;66191;53.178;22.058;2023-05-16T03:16:02;14.00;99.90
28247;DHT22;66191;53.178;22.058;2023-05-16T03:18:36;13.90;99.90
28247;DHT22;66191;53.178;22.058;2023-05-16T03:21:11;13.90;99.90
28247;DHT22;66191;53.178;22.058;2023-05-16T03:23:55;13.90;99.90
28247;DHT22;66191;53.178;22.058;2023-05-16T03:26:33;13.90;99.90
28247;DHT22;66191;53.178;22.058;2023-05-16T03:29:25;13.90;99.90
28247;DHT22;66191;53.178;22.058;2023-05-16T03:32:11;13.90;99.90
28247;DHT22;66191;53.178;22.058;2023-05-16T03:34:46;13.80;99.90
28247;DHT22;66191;53.178;22.058;2023-05-16T03:37:19;13.90;99.90
28247;DHT22;66191;53.178;22.058;2023-05-16T03:39:51;13.90;99.90
28247;DHT22;66191;53.178;22.058;2023-05-16T03:42:22;13.90;99.90
28247;DHT22;66191;53.178;22.058;2023-05-16T03:44:54;13.90;99.90
28247;DHT22;66191;53.178;22.058;2023-05-16T03:47:27;13.90;99.90
28247;DHT22;66191;53.178;22.058;2023-05-16T03:50:00;13.80;99.90
28247;DHT22;66191;53.178;22.058;2023-05-16T03:52:31;13.80;99.90
28247;DHT22;66191;53.178;22.058;2023-05-16T03:55:04;13.90;99.90
28247;DHT22;66191;53.178;22.058;2023-05-16T03:57:36;13.80;99.90
28247;DHT22;66191;53.178;22.058;2023-05-16T04:00:08;13.90;99.90
28247;DHT22;66191;53.178;22.058;2023-05-16T04:02:43;13.80;99.90
28247;DHT22;66191;53.178;22.058;2023-05-16T04:05:14;13.90;99.90
28247;DHT22;66191;53.178;22.058;2023-05-16T04:07:45;13.80;99.90
28247;DHT22;66191;53.178;22.058;2023-05-16T04:10:16;13.80;99.90
28247;DHT22;66191;53.178;22.058;2023-05-16T04:12:47;13.80;99.90
28247;DHT22;66191;53.178;22.058;2023-05-16T04:15:19;13.80;99.90
28247;DHT22;66191;53.178;22.058;2023-05-16T04:17:53;13.90;99.90
28247;DHT22;66191;53.178;22.058;2023-05-16T04:20:25;13.80;99.90
28247;DHT22;66191;53.178;22.058;2023-05-16T04:22:58;13.80;99.90
28247;DHT22;66191;53.178;22.058;2023-05-16T04:25:31;13.90;99.90
28247;DHT22;66191;53.178;22.058;2023-05-16T04:28:02;13.90;99.90
28247;DHT22;66191;53.178;22.058;2023-05-16T04:30:34;13.90;99.90
28247;DHT22;66191;53.178;22.058;2023-05-16T04:33:07;14.00;99.90
28247;DHT22;66191;53.178;22.058;2023-05-16T04:35:42;14.00;99.90
28247;DHT22;66191;53.178;22.058;2023-05-16T04:38:13;14.10;99.90
28247;DHT22;66191;53.178;22.058;2023-05-16T04:40:45;14.20;99.90
28247;DHT22;66191;53.178;22.058;2023-05-16T04:43:17;14.20;99.90
28247;DHT22;66191;53.178;22.058;2023-05-16T04:45:48;14.30;99.90
28247;DHT22;66191;53.178;22.058;2023-05-16T04:48:23;14.40;99.90
28247;DHT22;66191;53.178;22.058;2023-05-16T04:50:54;14.50;99.90
28247;DHT22;66191;53.178;22.058;2023-05-16T04:53:26;14.60;99.90
28247;DHT22;66191;53.178;22.058;2023-05-16T04:55:58;14.60;99.90
28247;DHT22;66191;53.178;22.058;2023-05-16T04:58:32;14.70;99.90
28247;DHT22;66191;53.178;22.058;2023-05-16T05:01:04;14.70;99.90
28247;DHT22;66191;53.178;22.058;2023-05-16T05:03:37;14.70;99.90
28247;DHT22;66191;53.178;22.058;2023-05-16T05:06:09;14.70;99.90
28247;DHT22;66191;53.178;22.058;2023-05-16T05:08:41;14.70;99.90
28247;DHT22;66191;53.178;22.058;2023-05-16T05:11:13;14.70;99.90
28247;DHT22;66191;53.178;22.058;2023-05-16T05:13:44;14.70;99.90
28247;DHT22;66191;53.178;22.058;2023-05-16T05:16:19;14.70;99.90
28247;DHT22;66191;53.178;22.058;2023-05-16T05:18:53;14.70;99.90
28247;DHT22;66191;53.178;22.058;2023-05-16T05:21:25;14.80;99.90
28247;DHT22;66191;53.178;22.058;2023-05-16T05:23:57;14.80;99.90
28247;DHT22;66191;53.178;22.058;2023-05-16T05:26:28;14.80;99.90
28247;DHT22;66191;53.178;22.058;2023-05-16T05:28:59;14.80;99.90
28247;DHT22;66191;53.178;22.058;2023-05-16T05:31:33;14.80;99.90
28247;DHT22;66191;53.178;22.058;2023-05-16T05:34:07;14.80;99.90
28247;DHT22;66191;53.178;22.058;2023-05-16T05:36:57;14.90;99.90
28247;DHT22;66191;53.178;22.058;2023-05-16T05:39:53;14.90;99.90
28247;DHT22;66191;53.178;22.058;2023-05-16T05:42:56;15.00;99.90
28247;DHT22;66191;53.178;22.058;2023-05-16T05:45:37;15.10;99.90
28247;DHT22;66191;53.178;22.058;2023-05-16T05:48:13;15.20;99.90
28247;DHT22;66191;53.178;22.058;2023-05-16T05:51:53;15.20;99.90
28247;DHT22;66191;53.178;22.058;2023-05-16T05:53:49;15.30;99.90
28247;DHT22;66191;53.178;22.058;2023-05-16T05:56:22;15.40;99.90
28247;DHT22;66191;53.178;22.058;2023-05-16T05:58:54;15.50;99.90
28247;DHT22;66191;53.178;22.058;2023-05-16T06:01:30;15.50;99.90
28247;DHT22;66191;53.178;22.058;2023-05-16T06:04:01;15.60;99.90
28247;DHT22;66191;53.178;22.058;2023-05-16T06:06:36;15.60;99.90
28247;DHT22;66191;53.178;22.058;2023-05-16T06:09:08;15.70;99.90
28247;DHT22;66191;53.178;22.058;2023-05-16T06:11:51;15.70;99.90
28247;DHT22;66191;53.178;22.058;2023-05-16T06:14:23;15.70;99.90
28247;DHT22;66191;53.178;22.058;2023-05-16T06:16:55;15.80;99.90
28247;DHT22;66191;53.178;22.058;2023-05-16T06:19:26;15.90;99.90
28247;DHT22;66191;53.178;22.058;2023-05-16T06:22:04;16.00;99.90
28247;DHT22;66191;53.178;22.058;2023-05-16T06:24:36;16.00;99.70
28247;DHT22;66191;53.178;22.058;2023-05-16T06:27:17;16.00;99.60
28247;DHT22;66191;53.178;22.058;2023-05-16T06:30:29;15.90;99.60
28247;DHT22;66191;53.178;22.058;2023-05-16T06:36:05;15.80;99.30
28247;DHT22;66191;53.178;22.058;2023-05-16T06:38:45;15.80;98.80
28247;DHT22;66191;53.178;22.058;2023-05-16T06:41:40;15.80;98.90
28247;DHT22;66191;53.178;22.058;2023-05-16T06:44:30;15.80;98.60
28247;DHT22;66191;53.178;22.058;2023-05-16T06:47:06;15.80;98.90
28247;DHT22;66191;53.178;22.058;2023-05-16T06:49:40;15.80;98.80
28247;DHT22;66191;53.178;22.058;2023-05-16T06:52:38;15.70;98.80
28247;DHT22;66191;53.178;22.058;2023-05-16T06:55:16;15.70;99.20
28247;DHT22;66191;53.178;22.058;2023-05-16T06:58:02;15.60;98.90
28247;DHT22;66191;53.178;22.058;2023-05-16T07:00:40;15.50;98.90
28247;DHT22;66191;53.178;22.058;2023-05-16T07:03:20;15.50;99.20
28247;DHT22;66191;53.178;22.058;2023-05-16T07:06:00;15.40;99.10
28247;DHT22;66191;53.178;22.058;2023-05-16T07:08:47;15.40;99.20
28247;DHT22;66191;53.178;22.058;2023-05-16T07:11:22;15.30;98.90
28247;DHT22;66191;53.178;22.058;2023-05-16T07:14:06;15.30;99.20
28247;DHT22;66191;53.178;22.058;2023-05-16T07:16:45;15.30;99.30
28247;DHT22;66191;53.178;22.058;2023-05-16T07:19:36;15.20;99.20
28247;DHT22;66191;53.178;22.058;2023-05-16T07:22:25;15.20;99.20
28247;DHT22;66191;53.178;22.058;2023-05-16T07:25:09;15.20;99.00
28247;DHT22;66191;53.178;22.058;2023-05-16T07:27:57;15.20;99.20
28247;DHT22;66191;53.178;22.058;2023-05-16T07:30:35;15.30;99.20
28247;DHT22;66191;53.178;22.058;2023-05-16T07:33:10;15.40;99.20
28247;DHT22;66191;53.178;22.058;2023-05-16T07:35:47;15.50;99.00
28247;DHT22;66191;53.178;22.058;2023-05-16T07:38:39;15.70;98.70
28247;DHT22;66191;53.178;22.058;2023-05-16T07:41:36;15.70;98.30
28247;DHT22;66191;53.178;22.058;2023-05-16T07:44:15;15.80;98.00
28247;DHT22;66191;53.178;22.058;2023-05-16T07:46:50;15.90;97.80
28247;DHT22;66191;53.178;22.058;2023-05-16T07:49:27;15.90;97.60
28247;DHT22;66191;53.178;22.058;2023-05-16T07:52:10;15.90;97.60
28247;DHT22;66191;53.178;22.058;2023-05-16T07:54:46;15.90;97.40
28247;DHT22;66191;53.178;22.058;2023-05-16T07:57:24;15.90;97.50
28247;DHT22;66191;53.178;22.058;2023-05-16T08:00:15;15.90;97.30
28247;DHT22;66191;53.178;22.058;2023-05-16T08:02:55;15.90;97.10
28247;DHT22;66191;53.178;22.058;2023-05-16T08:05:53;15.80;97.30
28247;DHT22;66191;53.178;22.058;2023-05-16T08:08:34;15.80;97.30
28247;DHT22;66191;53.178;22.058;2023-05-16T08:11:17;15.80;97.30
28247;DHT22;66191;53.178;22.058;2023-05-16T08:14:15;15.80;97.40
28247;DHT22;66191;53.178;22.058;2023-05-16T08:17:14;15.80;97.40
28247;DHT22;66191;53.178;22.058;2023-05-16T08:20:09;15.90;97.40
28247;DHT22;66191;53.178;22.058;2023-05-16T08:22:55;15.90;97.40
28247;DHT22;66191;53.178;22.058;2023-05-16T08:25:33;15.80;97.30
28247;DHT22;66191;53.178;22.058;2023-05-16T08:28:13;15.80;97.40
28247;DHT22;66191;53.178;22.058;2023-05-16T08:31:12;15.70;97.40
28247;DHT22;66191;53.178;22.058;2023-05-16T08:33:58;15.70;97.50
28247;DHT22;66191;53.178;22.058;2023-05-16T08:37:05;15.60;97.50
28247;DHT22;66191;53.178;22.058;2023-05-16T08:39:50;15.50;97.60
28247;DHT22;66191;53.178;22.058;2023-05-16T08:42:46;15.50;97.60
28247;DHT22;66191;53.178;22.058;2023-05-16T08:45:21;15.30;97.70
28247;DHT22;66191;53.178;22.058;2023-05-16T08:48:11;15.30;97.90
28247;DHT22;66191;53.178;22.058;2023-05-16T08:50:53;15.40;98.00
28247;DHT22;66191;53.178;22.058;2023-05-16T08:53:31;15.50;98.10
28247;DHT22;66191;53.178;22.058;2023-05-16T08:56:15;15.60;98.00
28247;DHT22;66191;53.178;22.058;2023-05-16T08:58:58;15.70;97.90
28247;DHT22;66191;53.178;22.058;2023-05-16T09:01:36;15.80;97.60
28247;DHT22;66191;53.178;22.058;2023-05-16T09:04:12;15.80;97.40
28247;DHT22;66191;53.178;22.058;2023-05-16T09:06:50;15.80;97.40
28247;DHT22;66191;53.178;22.058;2023-05-16T09:09:23;15.80;97.40
28247;DHT22;66191;53.178;22.058;2023-05-16T09:12:12;15.80;97.50
28247;DHT22;66191;53.178;22.058;2023-05-16T09:15:02;15.70;97.30
28247;DHT22;66191;53.178;22.058;2023-05-16T09:18:03;15.80;97.30
28247;DHT22;66191;53.178;22.058;2023-05-16T09:20:35;15.70;97.20
28247;DHT22;66191;53.178;22.058;2023-05-16T09:23:47;15.70;97.10
28247;DHT22;66191;53.178;22.058;2023-05-16T09:26:31;15.80;97.20
28247;DHT22;66191;53.178;22.058;2023-05-16T09:29:09;15.90;97.20
28247;DHT22;66191;53.178;22.058;2023-05-16T09:31:55;16.00;97.00
28247;DHT22;66191;53.178;22.058;2023-05-16T09:34:45;16.10;96.80
28247;DHT22;66191;53.178;22.058;2023-05-16T09:37:53;16.20;96.70
28247;DHT22;66191;53.178;22.058;2023-05-16T09:40:39;16.40;96.60
28247;DHT22;66191;53.178;22.058;2023-05-16T09:43:18;16.60;96.40
28247;DHT22;66191;53.178;22.058;2023-05-16T09:45:59;16.70;96.00
28247;DHT22;66191;53.178;22.058;2023-05-16T09:48:41;16.70;96.00
28247;DHT22;66191;53.178;22.058;2023-05-16T09:51:41;16.80;96.00
28247;DHT22;66191;53.178;22.058;2023-05-16T09:54:35;16.80;95.60
28247;DHT22;66191;53.178;22.058;2023-05-16T09:57:17;16.80;95.00
28247;DHT22;66191;53.178;22.058;2023-05-16T10:00:19;16.90;95.20
28247;DHT22;66191;53.178;22.058;2023-05-16T10:03:07;17.00;95.00
28247;DHT22;66191;53.178;22.058;2023-05-16T10:05:55;17.10;95.10
28247;DHT22;66191;53.178;22.058;2023-05-16T10:09:15;17.20;95.00
28247;DHT22;66191;53.178;22.058;2023-05-16T10:12:24;17.20;94.30
28247;DHT22;66191;53.178;22.058;2023-05-16T10:15:19;17.20;94.30
28247;DHT22;66191;53.178;22.058;2023-05-16T10:18:02;17.10;93.90
28247;DHT22;66191;53.178;22.058;2023-05-16T10:21:05;17.10;94.00
28247;DHT22;66191;53.178;22.058;2023-05-16T10:23:52;17.10;93.40
28247;DHT22;66191;53.178;22.058;2023-05-16T10:26:58;17.00;93.10
28247;DHT22;66191;53.178;22.058;2023-05-16T10:29:33;17.10;93.60
28247;DHT22;66191;53.178;22.058;2023-05-16T10:32:27;17.10;93.70
28247;DHT22;66191;53.178;22.058;2023-05-16T10:35:10;17.20;93.40
28247;DHT22;66191;53.178;22.058;2023-05-16T10:38:04;17.20;93.50
28247;DHT22;66191;53.178;22.058;2023-05-16T10:41:08;17.20;93.70
28247;DHT22;66191;53.178;22.058;2023-05-16T10:43:58;17.20;93.70
28247;DHT22;66191;53.178;22.058;2023-05-16T10:46:44;17.20;93.60
28247;DHT22;66191;53.178;22.058;2023-05-16T10:49:27;17.30;93.50
28247;DHT22;66191;53.178;22.058;2023-05-16T10:52:11;17.40;93.10
28247;DHT22;66191;53.178;22.058;2023-05-16T10:55:02;17.50;93.00
28247;DHT22;66191;53.178;22.058;2023-05-16T10:57:50;17.50;92.20
28247;DHT22;66191;53.178;22.058;2023-05-16T11:00:48;17.50;92.90
28247;DHT22;66191;53.178;22.058;2023-05-16T11:03:37;17.40;92.70
28247;DHT22;66191;53.178;22.058;2023-05-16T11:06:20;17.30;92.90
28247;DHT22;66191;53.178;22.058;2023-05-16T11:09:17;17.30;92.70
28247;DHT22;66191;53.178;22.058;2023-05-16T11:12:03;17.30;92.60
28247;DHT22;66191;53.178;22.058;2023-05-16T11:14:44;17.20;92.60
28247;DHT22;66191;53.178;22.058;2023-05-16T11:17:43;17.20;92.70
28247;DHT22;66191;53.178;22.058;2023-05-16T11:20:34;17.10;92.70
28247;DHT22;66191;53.178;22.058;2023-05-16T11:23:25;17.10;92.90
28247;DHT22;66191;53.178;22.058;2023-05-16T11:25:57;17.10;92.80
28247;DHT22;66191;53.178;22.058;2023-05-16T11:28:28;17.00;93.00
28247;DHT22;66191;53.178;22.058;2023-05-16T11:31:00;16.90;93.10
28247;DHT22;66191;53.178;22.058;2023-05-16T11:33:32;16.90;93.20
28247;DHT22;66191;53.178;22.058;2023-05-16T11:36:05;16.80;93.20
28247;DHT22;66191;53.178;22.058;2023-05-16T11:39:22;16.90;93.30
28247;DHT22;66191;53.178;22.058;2023-05-16T11:42:11;16.90;93.30
28247;DHT22;66191;53.178;22.058;2023-05-16T11:45:04;17.10;93.40
28247;DHT22;66191;53.178;22.058;2023-05-16T11:47:43;17.30;93.30
28247;DHT22;66191;53.178;22.058;2023-05-16T11:50:26;17.40;93.30
28247;DHT22;66191;53.178;22.058;2023-05-16T11:53:08;17.50;93.10
28247;DHT22;66191;53.178;22.058;2023-05-16T11:55:54;17.60;92.70
28247;DHT22;66191;53.178;22.058;2023-05-16T11:58:31;17.60;92.60
28247;DHT22;66191;53.178;22.058;2023-05-16T12:01:32;17.80;92.70
28247;DHT22;66191;53.178;22.058;2023-05-16T12:04:30;17.80;92.30
28247;DHT22;66191;53.178;22.058;2023-05-16T12:07:30;17.90;92.30
28247;DHT22;66191;53.178;22.058;2023-05-16T12:10:20;18.00;92.10
28247;DHT22;66191;53.178;22.058;2023-05-16T12:13:16;18.00;92.00
28247;DHT22;66191;53.178;22.058;2023-05-16T12:16:12;18.00;91.40
28247;DHT22;66191;53.178;22.058;2023-05-16T12:21:47;18.10;91.70
28247;DHT22;66191;53.178;22.058;2023-05-16T12:24:20;18.20;91.60
28247;DHT22;66191;53.178;22.058;2023-05-16T12:27:32;18.30;91.60
28247;DHT22;66191;53.178;22.058;2023-05-16T12:33:38;18.50;91.40
28247;DHT22;66191;53.178;22.058;2023-05-16T12:36:47;18.70;91.10
28247;DHT22;66191;53.178;22.058;2023-05-16T12:39:48;18.80;91.00
28247;DHT22;66191;53.178;22.058;2023-05-16T12:42:29;18.90;90.40
28247;DHT22;66191;53.178;22.058;2023-05-16T12:45:38;18.90;90.50
28247;DHT22;66191;53.178;22.058;2023-05-16T12:48:32;18.90;90.10
28247;DHT22;66191;53.178;22.058;2023-05-16T12:51:17;18.90;90.10
28247;DHT22;66191;53.178;22.058;2023-05-16T12:54:07;18.90;90.10
28247;DHT22;66191;53.178;22.058;2023-05-16T12:56:59;18.90;90.20
28247;DHT22;66191;53.178;22.058;2023-05-16T13:00:15;18.80;89.50
28247;DHT22;66191;53.178;22.058;2023-05-16T13:03:14;18.60;89.70
28247;DHT22;66191;53.178;22.058;2023-05-16T13:06:11;18.50;90.30
28247;DHT22;66191;53.178;22.058;2023-05-16T13:08:53;18.40;90.50
28247;DHT22;66191;53.178;22.058;2023-05-16T13:12:06;18.30;90.60
28247;DHT22;66191;53.178;22.058;2023-05-16T13:18:13;18.10;90.40
28247;DHT22;66191;53.178;22.058;2023-05-16T13:21:13;17.90;90.40
28247;DHT22;66191;53.178;22.058;2023-05-16T13:24:15;17.90;90.40
28247;DHT22;66191;53.178;22.058;2023-05-16T13:27:00;17.80;90.40
28247;DHT22;66191;53.178;22.058;2023-05-16T13:33:08;17.70;90.50
28247;DHT22;66191;53.178;22.058;2023-05-16T13:35:54;17.60;90.50
28247;DHT22;66191;53.178;22.058;2023-05-16T13:41:55;17.60;90.80
28247;DHT22;66191;53.178;22.058;2023-05-16T13:45:48;17.70;91.00
28247;DHT22;66191;53.178;22.058;2023-05-16T13:48:27;17.90;90.70
28247;DHT22;66191;53.178;22.058;2023-05-16T13:51:25;18.00;90.50
28247;DHT22;66191;53.178;22.058;2023-05-16T13:54:25;18.10;90.60
28247;DHT22;66191;53.178;22.058;2023-05-16T13:57:23;18.10;89.50
28247;DHT22;66191;53.178;22.058;2023-05-16T14:00:13;18.10;89.40
28247;DHT22;66191;53.178;22.058;2023-05-16T14:03:21;18.20;90.00
28247;DHT22;66191;53.178;22.058;2023-05-16T14:06:24;18.20;89.40
28247;DHT22;66191;53.178;22.058;2023-05-16T14:09:23;18.20;88.90
28247;DHT22;66191;53.178;22.058;2023-05-16T14:12:34;18.10;89.20
28247;DHT22;66191;53.178;22.058;2023-05-16T14:16:00;18.10;89.40
28247;DHT22;66191;53.178;22.058;2023-05-16T14:19:10;18.00;89.50
28247;DHT22;66191;53.178;22.058;2023-05-16T14:22:08;18.00;89.60
28247;DHT22;66191;53.178;22.058;2023-05-16T14:25:17;18.10;89.40
28247;DHT22;66191;53.178;22.058;2023-05-16T14:28:42;18.20;89.10
28247;DHT22;66191;53.178;22.058;2023-05-16T14:31:33;18.20;88.80
28247;DHT22;66191;53.178;22.058;2023-05-16T14:34:25;18.20;89.40
28247;DHT22;66191;53.178;22.058;2023-05-16T14:37:17;18.30;88.20
28247;DHT22;66191;53.178;22.058;2023-05-16T14:40:25;18.30;88.60
28247;DHT22;66191;53.178;22.058;2023-05-16T14:42:59;18.40;88.40
28247;DHT22;66191;53.178;22.058;2023-05-16T14:46:07;18.40;88.00
28247;DHT22;66191;53.178;22.058;2023-05-16T14:48:44;18.50;85.50
28247;DHT22;66191;53.178;22.058;2023-05-16T14:51:32;18.50;85.40
28247;DHT22;66191;53.178;22.058;2023-05-16T14:54:40;18.60;85.20
28247;DHT22;66191;53.178;22.058;2023-05-16T14:57:34;18.70;86.00
28247;DHT22;66191;53.178;22.058;2023-05-16T15:01:04;18.80;83.20
28247;DHT22;66191;53.178;22.058;2023-05-16T15:04:19;18.80;83.90
28247;DHT22;66191;53.178;22.058;2023-05-16T15:07:22;18.90;82.80
28247;DHT22;66191;53.178;22.058;2023-05-16T15:10:23;18.80;81.10
28247;DHT22;66191;53.178;22.058;2023-05-16T15:13:20;18.70;83.20
28247;DHT22;66191;53.178;22.058;2023-05-16T15:15:56;18.70;82.60
28247;DHT22;66191;53.178;22.058;2023-05-16T15:18:59;18.60;83.80
28247;DHT22;66191;53.178;22.058;2023-05-16T15:21:48;18.60;84.30
28247;DHT22;66191;53.178;22.058;2023-05-16T15:24:25;18.60;84.80
28247;DHT22;66191;53.178;22.058;2023-05-16T15:27:02;18.60;83.90
28247;DHT22;66191;53.178;22.058;2023-05-16T15:29:54;18.60;84.30
28247;DHT22;66191;53.178;22.058;2023-05-16T15:32:42;18.60;83.80
28247;DHT22;66191;53.178;22.058;2023-05-16T15:35:48;18.50;84.00
28247;DHT22;66191;53.178;22.058;2023-05-16T15:38:25;18.50;84.80
28247;DHT22;66191;53.178;22.058;2023-05-16T15:41:02;18.60;84.70
28247;DHT22;66191;53.178;22.058;2023-05-16T15:44:14;18.50;84.10
28247;DHT22;66191;53.178;22.058;2023-05-16T15:46:56;18.50;84.30
28247;DHT22;66191;53.178;22.058;2023-05-16T15:49:48;18.60;85.30
28247;DHT22;66191;53.178;22.058;2023-05-16T15:52:40;18.60;85.00
28247;DHT22;66191;53.178;22.058;2023-05-16T15:56:11;18.60;85.10
28247;DHT22;66191;53.178;22.058;2023-05-16T16:02:15;18.50;85.40
28247;DHT22;66191;53.178;22.058;2023-05-16T16:04:59;18.50;85.40
28247;DHT22;66191;53.178;22.058;2023-05-16T16:07:49;18.50;85.20
28247;DHT22;66191;53.178;22.058;2023-05-16T16:10:50;18.50;85.60
28247;DHT22;66191;53.178;22.058;2023-05-16T16:13:39;18.50;85.70
28247;DHT22;66191;53.178;22.058;2023-05-16T16:16:17;18.60;85.50
28247;DHT22;66191;53.178;22.058;2023-05-16T16:19:16;18.60;85.50
28247;DHT22;66191;53.178;22.058;2023-05-16T16:22:20;18.50;85.30
28247;DHT22;66191;53.178;22.058;2023-05-16T16:25:30;18.60;85.30
28247;DHT22;66191;53.178;22.058;2023-05-16T16:28:01;18.50;84.10
28247;DHT22;66191;53.178;22.058;2023-05-16T16:30:33;18.50;84.50
28247;DHT22;66191;53.178;22.058;2023-05-16T16:33:20;18.60;85.10
28247;DHT22;66191;53.178;22.058;2023-05-16T16:35:59;18.50;84.80
28247;DHT22;66191;53.178;22.058;2023-05-16T16:38:31;18.50;84.30
28247;DHT22;66191;53.178;22.058;2023-05-16T16:41:02;18.50;84.20
28247;DHT22;66191;53.178;22.058;2023-05-16T16:43:41;18.50;84.30
28247;DHT22;66191;53.178;22.058;2023-05-16T16:46:29;18.50;84.50
28247;DHT22;66191;53.178;22.058;2023-05-16T16:49:00;18.50;84.40
28247;DHT22;66191;53.178;22.058;2023-05-16T16:51:55;18.50;84.60
28247;DHT22;66191;53.178;22.058;2023-05-16T16:54:27;18.50;84.20
28247;DHT22;66191;53.178;22.058;2023-05-16T16:56:58;18.50;84.60
28247;DHT22;66191;53.178;22.058;2023-05-16T16:59:31;18.50;84.70
28247;DHT22;66191;53.178;22.058;2023-05-16T17:02:02;18.50;84.90
28247;DHT22;66191;53.178;22.058;2023-05-16T17:04:34;18.50;85.50
28247;DHT22;66191;53.178;22.058;2023-05-16T17:07:34;18.50;85.70
28247;DHT22;66191;53.178;22.058;2023-05-16T17:10:17;18.50;86.50
28247;DHT22;66191;53.178;22.058;2023-05-16T17:12:58;18.50;85.10
28247;DHT22;66191;53.178;22.058;2023-05-16T17:15:54;18.40;85.20
28247;DHT22;66191;53.178;22.058;2023-05-16T17:18:51;18.40;85.70
28247;DHT22;66191;53.178;22.058;2023-05-16T17:21:43;18.40;86.10